Time;durP1;ratioP1;P1;durP2;ratioP2;P2;SDS_P1;SDS_P2;PMS_P1;PMS_P2;Temp;Humidity;BMP_temperature;BMP_pressure;BME280_temperature;BME280_humidity;BME280_pressure;Samples;Min_cycle;Max_cycle;Signal;HPM_P1;HPM_P2
2022/09/11 01:11:24;;;;;;;;;;;17.90;77.30;;;17.18;71.83;95958.78;4334009;32;19901;-87
2022/09/11 01:13:59;;;;;;;;;;;17.90;78.20;;;17.18;71.77;95942.19;4304183;33;20165;-86
2022/09/11 01:16:32;;;;;;;;;;;17.90;78.20;;;17.20;71.80;95941.91;4278967;33;19901;-86
2022/09/11 01:19:11;;;;;;;;;;;17.90;78.10;;;17.20;71.73;95934.41;4279223;33;20158;-86
2022/09/11 01:21:58;;;;;;;;;;;17.90;78.10;;;17.21;71.67;95932.47;4303013;33;20091;-86
2022/09/11 01:24:49;;;;;;;;;;;17.90;78.00;;;17.22;71.69;95936.88;4279240;33;20143;-86
2022/09/11 01:27:42;;;;;;;;;;;17.90;77.90;;;17.22;71.46;95934.91;4303520;33;20142;-86
2022/09/11 01:30:12;;;;;;;;;;;17.90;77.90;;;17.23;71.63;95935.72;4278100;33;19973;-86
2022/09/11 01:32:52;;;;;;;;;;;18.00;77.80;;;17.24;71.59;95929.03;4303388;33;19901;-87
2022/09/11 01:35:24;;;;;;;;;;;18.00;77.80;;;17.25;71.53;95922.38;4278916;33;19901;-86
2022/09/11 01:37:56;;;;;;;;;;;18.00;77.70;;;17.23;71.06;95919.13;4279143;33;19901;-86
2022/09/11 01:40:28;;;;;;;;;;;18.00;77.60;;;17.24;71.31;95921.56;4302624;33;19982;-86
2022/09/11 01:43:04;;;;;;;;;;;18.00;77.60;;;17.26;71.18;95924.00;4278784;33;19909;-86
2022/09/11 01:45:36;;;;;;;;;;;18.00;77.50;;;17.24;71.46;95920.75;4303037;33;20053;-86
2022/09/11 01:48:04;;;;;;;;;;;18.00;77.50;;;17.26;71.23;95926.78;4278882;33;20038;-86
2022/09/11 01:50:34;;;;;;;;;;;18.00;77.40;;;17.26;71.27;95924.84;4302549;33;20224;-86
2022/09/11 01:53:03;;;;;;;;;;;18.00;77.40;;;17.25;71.42;95917.66;4303091;33;19916;-86
2022/09/11 01:55:35;;;;;;;;;;;18.00;77.50;;;17.27;71.10;95920.09;4278501;33;19901;-87
2022/09/11 01:58:07;;;;;;;;;;;18.00;77.30;;;17.28;70.89;95921.72;4278851;33;20055;-86
2022/09/11 02:00:41;;;;;;;;;;;18.00;77.20;;;17.27;70.80;95925.63;4302136;33;19901;-86
2022/09/11 02:03:15;;;;;;;;;;;18.00;77.10;;;17.28;71.11;95919.81;4278488;33;19944;-86
2022/09/11 02:05:48;;;;;;;;;;;18.00;77.10;;;17.28;70.92;95922.56;4302954;33;20305;-86
2022/09/11 02:08:25;;;;;;;;;;;18.00;77.10;;;17.27;71.15;95923.69;4303133;33;20146;-86
2022/09/11 02:11:02;;;;;;;;;;;18.00;77.30;;;17.28;70.91;95916.19;4273242;33;19901;-86
2022/09/11 02:13:34;;;;;;;;;;;18.00;77.20;;;17.28;71.11;95927.28;4293125;33;19902;-86
2022/09/11 02:16:08;;;;;;;;;;;18.00;77.30;;;17.28;71.12;95925.34;4293022;33;20089;-86
2022/09/11 02:18:41;;;;;;;;;;;18.00;77.30;;;17.28;70.96;95917.03;4268245;33;19902;-86
2022/09/11 02:21:10;;;;;;;;;;;18.00;77.20;;;17.28;70.88;95917.03;4267273;33;19990;-86
2022/09/11 02:23:41;;;;;;;;;;;18.00;77.00;;;17.28;70.74;95917.03;4268749;33;19901;-86
2022/09/11 02:26:09;;;;;;;;;;;18.00;76.90;;;17.28;70.62;95910.66;4269031;33;19908;-87
2022/09/11 02:28:40;;;;;;;;;;;18.00;77.00;;;17.28;70.70;95916.19;4293016;33;19901;-86
2022/09/11 02:31:08;;;;;;;;;;;18.00;76.90;;;17.28;70.70;95910.66;4268186;33;20212;-86
2022/09/11 02:33:37;;;;;;;;;;;18.00;76.90;;;17.27;70.84;95918.16;4268717;33;19901;-86
2022/09/11 02:36:21;;;;;;;;;;;18.00;77.00;;;17.28;70.59;95914.28;4292876;33;19974;-87
2022/09/11 02:39:08;;;;;;;;;;;18.00;76.80;;;17.28;70.78;95917.03;4292930;33;19987;-86
2022/09/11 02:41:42;;;;;;;;;;;18.00;76.90;;;17.30;70.89;95911.16;4292288;33;19901;-86
2022/09/11 02:44:16;;;;;;;;;;;18.00;76.90;;;17.28;70.75;95917.03;4268796;33;20097;-86
2022/09/11 02:46:56;;;;;;;;;;;18.00;76.80;;;17.28;70.45;95910.66;4268616;33;19901;-86
2022/09/11 02:49:31;;;;;;;;;;;18.00;76.60;;;17.28;70.46;95907.91;4268665;33;19901;-86
2022/09/11 02:52:04;;;;;;;;;;;18.00;76.70;;;17.28;70.54;95905.13;4268079;33;19901;-86
2022/09/11 02:54:36;;;;;;;;;;;18.00;76.70;;;17.28;70.58;95903.19;4268424;33;19901;-86
2022/09/11 02:57:08;;;;;;;;;;;18.00;76.90;;;17.27;70.71;95909.03;4268335;33;20099;-86
2022/09/11 02:59:41;;;;;;;;;;;18.00;76.90;;;17.28;70.61;95907.91;4268519;33;20238;-86
2022/09/11 03:02:10;;;;;;;;;;;18.00;76.60;;;17.27;70.29;95915.41;4268287;33;20137;-86
2022/09/11 03:04:40;;;;;;;;;;;18.00;76.60;;;17.28;70.41;95905.13;4268365;33;20072;-86
2022/09/11 03:07:09;;;;;;;;;;;18.00;76.60;;;17.27;70.45;95909.03;4268478;33;19901;-86
2022/09/11 03:09:40;;;;;;;;;;;18.00;76.50;;;17.28;70.58;95911.50;4267567;33;19985;-86
2022/09/11 03:12:15;;;;;;;;;;;18.00;76.40;;;17.26;70.34;95911.00;4268287;33;20037;-86
2022/09/11 03:14:48;;;;;;;;;;;18.00;76.50;;;17.26;70.02;95908.25;4268335;33;20037;-86
2022/09/11 03:17:17;;;;;;;;;;;18.00;76.50;;;17.26;70.21;95913.78;4268282;33;20068;-86
2022/09/11 03:19:45;;;;;;;;;;;18.00;76.40;;;17.26;70.51;95915.69;4267699;33;20103;-86
2022/09/11 03:22:14;;;;;;;;;;;18.00;76.50;;;17.26;70.17;95919.31;4267337;33;20025;-86
2022/09/11 03:24:44;;;;;;;;;;;18.00;76.30;;;17.26;70.11;95922.06;4268131;33;19901;-86
2022/09/11 03:27:13;;;;;;;;;;;18.00;76.30;;;17.25;70.02;95920.44;4267916;33;20212;-85
2022/09/11 03:29:43;;;;;;;;;;;18.00;76.20;;;17.26;70.04;95926.78;4267695;33;20041;-86
2022/09/11 03:32:14;;;;;;;;;;;18.00;76.20;;;17.25;70.09;95916.84;4291916;33;19908;-86
2022/09/11 03:34:43;;;;;;;;;;;18.00;76.10;;;17.26;70.13;95918.47;4267952;33;20291;-86
2022/09/11 03:37:12;;;;;;;;;;;18.00;76.10;;;17.25;70.00;95914.91;4267979;33;19909;-86
2022/09/11 03:39:42;;;;;;;;;;;18.00;76.10;;;17.25;70.12;95917.66;4267573;33;19901;-86
2022/09/11 03:42:11;;;;;;;;;;;18.00;76.10;;;17.25;70.04;95920.44;4291948;33;19909;-86
2022/09/11 03:44:40;;;;;;;;;;;18.00;76.10;;;17.25;69.97;95917.66;4268021;33;19937;-85
2022/09/11 03:47:14;;;;;;;;;;;18.00;76.10;;;17.24;69.98;95920.75;4267837;33;20112;-85
2022/09/11 03:49:42;;;;;;;;;;;18.00;76.00;;;17.25;69.86;95927.91;4267342;33;19901;-86
2022/09/11 03:52:13;;;;;;;;;;;18.00;76.00;;;17.24;69.92;95926.28;4267764;33;19934;-85
2022/09/11 03:54:41;;;;;;;;;;;18.00;76.00;;;17.23;69.82;95935.72;4267830;33;19901;-86
2022/09/11 03:57:10;;;;;;;;;;;18.00;76.10;;;17.22;69.99;95923.84;4267775;33;20016;-85
2022/09/11 03:59:40;;;;;;;;;;;18.00;76.10;;;17.24;69.83;95926.28;4267075;33;19914;-85
2022/09/11 04:02:08;;;;;;;;;;;18.00;76.00;;;17.23;69.83;95921.91;4267353;33;20150;-86
2022/09/11 04:04:40;;;;;;;;;;;18.00;76.80;;;17.24;69.67;95926.28;4291878;33;20121;-86
2022/09/11 04:07:08;;;;;;;;;;;18.00;76.00;;;17.22;69.88;95923.03;4267583;33;19908;-86
2022/09/11 04:09:37;;;;;;;;;;;18.00;76.00;;;17.23;69.83;95935.72;4267075;33;20131;-86
2022/09/11 04:12:06;;;;;;;;;;;18.00;76.00;;;17.23;69.73;95925.47;4267691;33;19905;-86
2022/09/11 04:14:34;;;;;;;;;;;18.00;75.90;;;17.23;69.71;95938.50;4291460;33;20114;-85
2022/09/11 04:17:06;;;;;;;;;;;18.00;75.90;;;17.25;69.69;95944.50;4267583;33;19901;-86
2022/09/11 04:19:41;;;;;;;;;;;18.00;75.70;;;17.25;69.64;95947.28;4267539;33;20141;-86
2022/09/11 04:22:11;;;;;;;;;;;18.00;75.70;;;17.25;69.53;95939.81;4291403;33;19902;-85
2022/09/11 04:24:41;;;;;;;;;;;18.00;75.70;;;17.26;69.65;95941.44;4291554;33;19946;-86
2022/09/11 04:27:11;;;;;;;;;;;18.00;75.60;;;17.27;69.31;95931.16;4267350;33;20353;-85
2022/09/11 04:29:41;;;;;;;;;;;18.00;75.60;;;17.28;69.66;95943.88;4266797;33;20228;-85
2022/09/11 04:32:12;;;;;;;;;;;18.00;75.60;;;17.30;69.59;95936.06;4267256;33;19909;-85
2022/09/11 04:34:43;;;;;;;;;;;18.00;75.50;;;17.31;69.48;95926.63;4266995;33;19901;-86
2022/09/11 04:37:11;;;;;;;;;;;18.10;75.60;;;17.35;69.45;95935.94;4266915;33;19908;-86
2022/09/11 04:39:41;;;;;;;;;;;18.10;75.50;;;17.40;69.26;95934.97;4266722;33;19902;-85
2022/09/11 04:42:09;;;;;;;;;;;18.10;75.50;;;17.51;69.28;95943.75;4267157;33;20128;-86
2022/09/11 04:44:39;;;;;;;;;;;18.30;75.50;;;17.68;69.25;95943.00;4267296;33;20116;-85
2022/09/11 04:47:08;;;;;;;;;;;18.40;75.40;;;17.87;69.12;95942.72;4267278;33;20127;-86
2022/09/11 04:49:36;;;;;;;;;;;18.50;75.50;;;18.06;68.56;95951.53;4266775;33;19994;-86
2022/09/11 04:52:06;;;;;;;;;;;18.80;74.80;;;18.28;68.22;95941.41;4267351;33;20148;-85
2022/09/11 04:54:36;;;;;;;;;;;19.10;73.90;;;18.56;67.58;95935.53;4267059;33;19902;-85
2022/09/11 04:57:08;;;;;;;;;;;19.40;72.60;;;18.90;66.37;95933.81;4267076;33;20239;-86
2022/09/11 04:59:37;;;;;;;;;;;19.90;71.00;;;19.27;65.24;95928.63;4266759;33;19977;-85
2022/09/11 05:02:15;;;;;;;;;;;20.30;68.90;;;19.61;63.23;95924.03;4291111;33;20397;-86
2022/09/11 05:04:47;;;;;;;;;;;20.60;66.90;;;19.85;62.22;95930.91;4266989;33;20239;-86
2022/09/11 05:07:17;;;;;;;;;;;20.90;65.80;;;20.03;61.62;95928.03;4291123;33;19901;-86
2022/09/11 05:09:49;;;;;;;;;;;21.00;65.10;;;20.17;61.12;95922.19;4266191;33;19916;-86
2022/09/11 05:12:19;;;;;;;;;;;21.10;64.80;;;20.19;60.87;95931.00;4266866;33;20099;-87
2022/09/11 05:15:40;;;;;;;;;;;21.10;64.70;;;20.15;61.15;95925.31;4290693;33;19909;-86
2022/09/11 05:18:10;;;;;;;;;;;21.00;64.90;;;20.03;61.82;95928.03;4238044;33;19901;-86
2022/09/11 05:20:40;;;;;;;;;;;20.90;65.80;;;19.92;62.09;95927.63;4237707;33;19902;-86
2022/09/11 05:23:11;;;;;;;;;;;20.80;66.10;;;19.82;62.59;95928.78;4238153;33;20037;-86
2022/09/11 05:25:40;;;;;;;;;;;20.80;66.70;;;19.73;62.73;95928.03;4238489;33;19998;-86
2022/09/11 05:28:10;;;;;;;;;;;20.70;67.00;;;19.68;63.08;95929.06;4238052;33;19909;-86
2022/09/11 05:30:39;;;;;;;;;;;20.70;67.90;;;19.68;63.00;95931.03;4261557;33;19901;-86
2022/09/11 05:33:08;;;;;;;;;;;20.80;67.00;;;19.75;63.04;95929.31;4238136;33;20142;-86
2022/09/11 05:35:37;;;;;;;;;;;20.90;66.80;;;19.85;62.81;95928.13;4238064;33;19906;-86
2022/09/11 05:38:06;;;;;;;;;;;21.10;66.50;;;20.03;62.47;95933.59;4238191;33;19902;-85
2022/09/11 05:40:37;;;;;;;;;;;21.40;65.60;;;20.23;61.71;95938.31;4261438;33;19902;-86
2022/09/11 05:43:05;;;;;;;;;;;21.70;64.40;;;20.45;61.26;95933.56;4238039;33;20098;-86
2022/09/11 05:45:34;;;;;;;;;;;22.00;63.10;;;20.63;60.39;95937.00;4238555;33;20209;-86
2022/09/11 05:48:04;;;;;;;;;;;22.20;62.00;;;20.79;59.44;95931.59;4240442;33;20115;-86
2022/09/11 05:50:36;;;;;;;;;;;22.40;61.30;;;20.90;59.28;95931.16;4240077;33;19902;-86
2022/09/11 05:53:05;;;;;;;;;;;22.50;60.90;;;20.93;58.71;95928.50;4240532;33;20137;-86
2022/09/11 05:55:35;;;;;;;;;;;22.40;60.50;;;20.90;58.76;95931.16;4264349;33;19906;-86
2022/09/11 05:58:04;;;;;;;;;;;22.30;60.70;;;20.83;58.53;95920.59;4240319;33;19986;-86
2022/09/11 06:00:32;;;;;;;;;;;22.10;61.80;;;20.71;58.87;95924.16;4239687;33;19908;-86
2022/09/11 06:19:26;;;;;;;;;;;21.40;63.10;;;19.63;62.28;95916.19;4341821;32;20087;-85
2022/09/11 06:24:27;;;;;;;;;;;20.50;67.10;;;19.46;63.26;95917.09;4307104;27;20113;-89
2022/09/11 06:26:57;;;;;;;;;;;20.30;68.00;;;19.38;63.17;95917.16;4222070;33;19942;-89
2022/09/11 06:29:31;;;;;;;;;;;20.20;68.30;;;19.35;63.80;95915.88;4221656;33;19910;-89
2022/09/11 06:32:02;;;;;;;;;;;20.20;68.70;;;19.30;63.71;95916.84;4214460;33;20060;-89
2022/09/11 06:34:33;;;;;;;;;;;20.10;69.00;;;19.25;64.17;95913.44;4193821;33;19903;-89
2022/09/11 06:37:06;;;;;;;;;;;20.00;69.10;;;19.20;64.33;95914.44;4193874;33;19903;-89
2022/09/11 06:39:36;;;;;;;;;;;20.00;69.40;;;19.19;64.20;95915.59;4193148;33;20133;-88
2022/09/11 06:42:06;;;;;;;;;;;20.00;69.70;;;19.17;64.62;95918.72;4193626;33;20084;-89
2022/09/11 06:44:38;;;;;;;;;;;19.90;69.90;;;19.16;64.23;95922.63;4193690;33;19903;-88
2022/09/11 06:47:07;;;;;;;;;;;19.90;70.00;;;19.15;64.61;95931.31;4193654;33;19903;-88
2022/09/11 06:49:37;;;;;;;;;;;19.90;70.10;;;19.17;64.52;95929.81;4216757;33;19926;-86
2022/09/11 06:52:41;;;;;;;;;;;19.90;70.20;;;19.17;64.52;95917.88;4160566;34;20159;-87
2022/09/11 06:55:22;;;;;;;;;;;19.90;70.30;;;19.19;64.69;95925.91;4184140;33;20167;-87
2022/09/11 06:58:01;;;;;;;;;;;19.90;70.40;;;19.18;64.34;95925.06;4193243;33;20210;-86
2022/09/11 07:00:32;;;;;;;;;;;19.90;70.40;;;19.19;64.79;95918.38;4217318;33;19936;-86
2022/09/11 07:03:01;;;;;;;;;;;19.90;70.40;;;19.20;64.38;95920.00;4217101;33;19907;-87
2022/09/11 07:05:31;;;;;;;;;;;19.90;70.50;;;19.22;64.56;95923.25;4217394;33;19902;-88
2022/09/11 07:08:02;;;;;;;;;;;19.90;70.40;;;19.24;64.80;95922.91;4216238;33;19960;-87
2022/09/11 07:10:35;;;;;;;;;;;19.90;70.50;;;19.24;64.73;95926.53;4193535;33;20099;-87
2022/09/11 07:13:04;;;;;;;;;;;19.90;70.50;;;19.25;64.52;95930.09;4249577;33;20185;-88
2022/09/11 07:15:33;;;;;;;;;;;19.90;70.50;;;19.27;64.75;95931.41;4273611;33;20127;-88
2022/09/11 07:18:04;;;;;;;;;;;19.90;70.50;;;19.29;64.57;95928.28;4249042;33;19917;-88
2022/09/11 07:20:32;;;;;;;;;;;19.90;70.40;;;19.30;64.26;95930.72;4249402;33;20114;-85
2022/09/11 07:23:01;;;;;;;;;;;19.90;70.40;;;19.31;64.62;95926.00;4272949;33;19917;-84
2022/09/11 07:25:32;;;;;;;;;;;20.00;70.40;;;19.32;64.69;95916.53;4273276;33;19902;-86
2022/09/11 07:28:02;;;;;;;;;;;20.00;70.40;;;19.32;64.25;95914.56;4272866;33;20122;-86
2022/09/11 07:30:32;;;;;;;;;;;20.00;70.40;;;19.34;64.47;95916.19;4249242;33;19902;-85
2022/09/11 07:33:02;;;;;;;;;;;20.00;70.30;;;19.34;64.47;95924.50;4198746;33;20182;-85
2022/09/11 07:35:31;;;;;;;;;;;20.00;70.40;;;19.35;64.48;95915.88;4184477;33;19910;-85
2022/09/11 07:37:59;;;;;;;;;;;19.90;70.40;;;19.34;64.53;95913.41;4182856;33;19902;-85
2022/09/11 07:40:30;;;;;;;;;;;20.00;70.30;;;19.36;64.42;95916.66;4183507;33;19903;-86
2022/09/11 07:43:02;;;;;;;;;;;20.00;70.30;;;19.36;64.58;95916.66;4183343;33;19902;-86
2022/09/11 07:45:31;;;;;;;;;;;20.00;70.30;;;19.36;64.36;95925.00;4183276;33;19902;-86
2022/09/11 07:48:01;;;;;;;;;;;20.00;70.40;;;19.34;64.24;95925.34;4206115;33;20117;-85
2022/09/11 07:50:32;;;;;;;;;;;19.90;70.30;;;19.37;64.52;95923.84;4183231;33;19938;-85
2022/09/11 07:53:01;;;;;;;;;;;19.90;70.30;;;19.36;64.56;95928.59;4206363;33;19918;-85
2022/09/11 07:55:30;;;;;;;;;;;20.00;70.40;;;19.35;64.53;95915.03;4183278;33;19907;-85
2022/09/11 07:57:58;;;;;;;;;;;20.00;70.30;;;19.37;64.17;95930.19;4206025;33;19903;-85
2022/09/11 08:00:28;;;;;;;;;;;20.00;70.40;;;19.37;63.98;95918.31;4183086;33;19916;-85
2022/09/11 08:03:06;;;;;;;;;;;20.00;70.40;;;19.31;64.63;95923.22;4182948;33;20062;-85
2022/09/11 08:17:44;;;;;;;;;;;19.80;70.70;;;19.14;64.89;95921.34;4150436;34;19907;-85
2022/09/11 08:20:14;;;;;;;;;;;19.80;70.90;;;19.15;65.21;95917.44;4128698;34;19910;-85
2022/09/11 08:23:33;;;;;;;;;;;19.80;71.00;;;19.16;64.91;95919.06;4150786;34;19911;-85
2022/09/11 08:26:59;;;;;;;;;;;19.80;71.00;;;19.16;65.22;95916.28;4128036;34;19903;-84
2022/09/11 08:41:49;;;;;;;;;;;19.80;71.00;;;19.08;65.32;95900.47;4123289;34;19904;-84
2022/09/11 08:44:50;;;;;;;;;;;19.80;71.00;;;19.07;65.46;95896.91;4101131;34;20100;-84
2022/09/11 08:47:35;;;;;;;;;;;19.80;71.10;;;19.06;65.57;95891.66;4099945;34;19904;-84
2022/09/11 08:50:06;;;;;;;;;;;19.70;71.10;;;19.01;65.29;95890.72;4101120;34;19904;-84
2022/09/11 08:52:36;;;;;;;;;;;19.70;71.10;;;19.01;65.71;95895.44;4101211;34;20393;-85
2022/09/11 08:55:12;;;;;;;;;;;19.70;71.20;;;18.99;65.41;95892.19;4123347;34;19911;-85
2022/09/11 08:57:48;;;;;;;;;;;19.70;71.20;;;18.97;65.57;95895.31;4100452;34;20242;-84
2022/09/11 09:00:20;;;;;;;;;;;19.70;71.30;;;18.96;65.60;95893.69;4100933;34;19904;-84
2022/09/11 09:03:41;;;;;;;;;;;19.70;71.40;;;18.94;65.65;95898.75;4100987;34;19905;-84
2022/09/11 09:06:36;;;;;;;;;;;19.70;71.40;;;18.92;65.82;95898.22;4026082;34;20173;-85
2022/09/11 09:09:12;;;;;;;;;;;19.60;71.40;;;18.89;66.02;95890.59;4100296;34;19904;-84
2022/09/11 09:11:46;;;;;;;;;;;19.60;71.40;;;18.87;65.97;95884.56;4123085;34;19904;-84
2022/09/11 09:14:42;;;;;;;;;;;19.60;71.60;;;18.85;66.26;95886.84;4123064;34;19904;-85
2022/09/11 09:17:13;;;;;;;;;;;19.50;71.60;;;18.81;65.95;95883.91;4144074;34;20040;-85
2022/09/11 09:19:46;;;;;;;;;;;19.60;71.70;;;18.81;66.10;95894.19;4127049;34;19975;-84
2022/09/11 09:22:18;;;;;;;;;;;19.60;71.90;;;18.79;66.35;95899.25;4150351;34;19911;-84
2022/09/11 09:24:49;;;;;;;;;;;19.60;71.90;;;18.78;66.32;95887.34;4149932;34;19912;-84
2022/09/11 09:27:27;;;;;;;;;;;19.50;71.90;;;18.79;66.52;95893.69;4127555;34;19927;-84
2022/09/11 09:29:56;;;;;;;;;;;19.50;72.00;;;18.76;66.58;95889.63;4127375;34;19903;-84
2022/09/11 09:32:29;;;;;;;;;;;19.50;72.00;;;18.77;66.37;95893.25;4127639;34;20013;-83
2022/09/11 09:35:01;;;;;;;;;;;19.50;72.00;;;18.76;66.20;95888.84;4127361;34;19903;-83
2022/09/11 09:37:30;;;;;;;;;;;19.50;72.00;;;18.73;66.59;95889.50;4127029;34;19904;-83
2022/09/11 09:40:02;;;;;;;;;;;19.50;72.00;;;18.71;66.60;95898.16;4150039;34;20175;-85
2022/09/11 09:42:51;;;;;;;;;;;19.50;72.00;;;18.69;66.62;95887.38;4127607;34;19904;-85
2022/09/11 09:45:37;;;;;;;;;;;19.50;72.10;;;18.68;66.61;95894.06;4127269;34;20314;-84
2022/09/11 09:48:06;;;;;;;;;;;19.40;72.10;;;18.67;66.67;95892.44;4123192;34;19904;-84
2022/09/11 09:50:37;;;;;;;;;;;19.40;72.10;;;18.66;66.72;95888.03;4122797;34;20138;-84
2022/09/11 09:53:16;;;;;;;;;;;19.40;72.10;;;18.64;66.45;95884.81;4122753;34;20030;-85
2022/09/11 09:55:46;;;;;;;;;;;19.40;72.20;;;18.63;66.59;95879.56;4100329;34;19927;-85
2022/09/11 09:58:16;;;;;;;;;;;19.40;72.20;;;18.61;66.77;95885.44;4099733;34;20330;-85
2022/09/11 10:00:44;;;;;;;;;;;19.40;72.30;;;18.61;66.89;95890.16;4122710;34;19923;-84
2022/09/11 10:03:23;;;;;;;;;;;19.40;72.30;;;18.59;66.88;95882.19;4122574;34;19904;-84
2022/09/11 10:05:53;;;;;;;;;;;19.40;72.40;;;18.58;67.22;95880.56;4100190;34;19904;-84
2022/09/11 10:08:32;;;;;;;;;;;19.40;72.40;;;18.56;66.70;95880.06;4123086;34;19911;-84
2022/09/11 10:11:02;;;;;;;;;;;19.30;72.50;;;18.57;66.85;95875.38;4125257;34;20013;-84
2022/09/11 10:13:34;;;;;;;;;;;19.30;72.40;;;18.55;67.05;95873.72;4149630;34;19989;-84
2022/09/11 10:16:03;;;;;;;;;;;19.30;72.50;;;18.54;67.00;95874.88;4150487;34;19992;-84
2022/09/11 10:18:41;;;;;;;;;;;19.30;72.60;;;18.53;67.07;95875.19;4126339;34;20061;-84
2022/09/11 10:21:24;;;;;;;;;;;19.30;72.50;;;18.51;67.00;95883.03;4150542;34;20106;-84
2022/09/11 10:23:54;;;;;;;;;;;19.30;72.60;;;18.50;66.89;95878.63;4149481;34;19904;-84
2022/09/11 10:26:27;;;;;;;;;;;19.20;72.50;;;18.49;67.19;95879.78;4149427;34;20098;-84
2022/09/11 10:29:01;;;;;;;;;;;19.30;72.60;;;18.48;67.34;95873.41;4148852;34;19904;-83
2022/09/11 10:31:30;;;;;;;;;;;19.20;72.50;;;18.47;66.96;95868.22;4150510;34;19959;-83
2022/09/11 10:33:59;;;;;;;;;;;19.20;72.70;;;18.46;67.10;95867.38;4150364;34;19904;-83
2022/09/11 10:36:28;;;;;;;;;;;19.20;72.70;;;18.45;67.38;95864.94;4126864;34;19911;-84
2022/09/11 10:38:58;;;;;;;;;;;19.20;72.70;;;18.44;67.14;95866.91;4126507;34;20382;-82
2022/09/11 10:41:26;;;;;;;;;;;19.20;72.70;;;18.41;67.36;95862.03;4149476;34;19971;-83
2022/09/11 10:43:59;;;;;;;;;;;19.20;72.80;;;18.41;67.36;95862.03;4149538;34;19911;-85
2022/09/11 10:46:33;;;;;;;;;;;19.20;72.80;;;18.40;67.12;95852.88;4149293;34;20204;-84
2022/09/11 10:49:15;;;;;;;;;;;19.20;72.90;;;18.39;67.25;95865.13;4148912;34;20114;-84
2022/09/11 10:51:58;;;;;;;;;;;19.20;72.90;;;18.38;67.11;95862.69;4126836;34;20087;-84
2022/09/11 10:54:45;;;;;;;;;;;19.10;73.00;;;18.39;67.26;95869.84;4126928;34;20094;-84
2022/09/11 10:57:18;;;;;;;;;;;19.20;73.00;;;18.38;67.40;95871.81;4149319;34;20234;-84
2022/09/11 10:59:58;;;;;;;;;;;19.20;73.10;;;18.38;67.50;95869.06;4148787;34;19912;-84
2022/09/11 11:02:30;;;;;;;;;;;19.20;73.00;;;18.38;67.25;95869.06;4149301;34;20013;-84
2022/09/11 11:05:01;;;;;;;;;;;19.20;72.90;;;18.37;67.10;95872.97;4149029;34;19911;-84
2022/09/11 11:07:59;;;;;;;;;;;19.20;72.90;;;18.36;67.50;95860.25;4126190;34;20214;-84
2022/09/11 11:10:38;;;;;;;;;;;19.10;72.90;;;18.36;67.55;95860.25;4150633;34;20234;-85
2022/09/11 11:13:30;;;;;;;;;;;19.10;73.00;;;18.35;67.25;95846.69;4151585;34;19904;-84
2022/09/11 11:16:06;;;;;;;;;;;19.10;73.00;;;18.34;67.50;95857.00;4128863;34;19974;-85
2022/09/11 11:18:49;;;;;;;;;;;19.10;73.10;;;18.33;67.36;95852.59;4150907;34;19904;-85
2022/09/11 11:21:26;;;;;;;;;;;19.10;73.10;;;18.33;67.28;95849.00;4151381;34;19917;-84
2022/09/11 11:24:10;;;;;;;;;;;19.10;73.20;;;18.32;67.43;95847.38;4151507;34;19994;-85
2022/09/11 11:26:52;;;;;;;;;;;19.10;73.20;;;18.31;67.45;95846.56;4128865;34;20085;-85
2022/09/11 11:29:32;;;;;;;;;;;19.10;73.20;;;18.29;67.47;95848.84;4151830;34;20154;-85
2022/09/11 11:32:16;;;;;;;;;;;19.00;73.10;;;18.30;67.57;95846.91;4151400;34;20237;-84
2022/09/11 11:35:24;;;;;;;;;;;19.00;73.20;;;18.26;67.43;95855.06;4151183;34;19904;-85
2022/09/11 11:37:55;;;;;;;;;;;19.10;73.30;;;18.26;67.33;95857.84;4148776;34;19911;-82
2022/09/11 11:40:27;;;;;;;;;;;19.00;73.10;;;18.25;67.26;95847.88;4151189;34;20072;-82
2022/09/11 11:42:58;;;;;;;;;;;19.00;73.20;;;18.25;67.58;95853.44;4152297;34;20257;-83
2022/09/11 11:45:30;;;;;;;;;;;19.00;73.20;;;18.24;67.62;95843.50;4151073;34;19911;-84
2022/09/11 11:48:05;;;;;;;;;;;19.00;73.30;;;18.23;67.50;95844.63;4128134;34;19904;-84
2022/09/11 11:50:37;;;;;;;;;;;19.00;73.20;;;18.22;67.58;95838.25;4152080;34;19904;-84
2022/09/11 11:53:08;;;;;;;;;;;19.00;73.30;;;18.23;67.68;95839.09;4151336;34;19947;-84
2022/09/11 11:55:46;;;;;;;;;;;19.00;73.40;;;18.22;67.59;95840.22;4151030;34;19967;-84
2022/09/11 11:58:23;;;;;;;;;;;19.00;73.30;;;18.20;67.59;95836.97;4128044;34;20248;-85
2022/09/11 12:00:56;;;;;;;;;;;19.00;73.30;;;18.21;67.79;95839.41;4152034;34;20154;-85
2022/09/11 12:03:29;;;;;;;;;;;18.90;73.40;;;18.20;67.72;95834.19;4152005;34;20189;-83
2022/09/11 12:05:58;;;;;;;;;;;19.00;73.40;;;18.20;67.63;95834.19;4128366;34;20007;-83
2022/09/11 12:08:26;;;;;;;;;;;19.00;73.50;;;18.20;67.62;95834.19;4127869;34;19904;-83
2022/09/11 12:10:57;;;;;;;;;;;19.00;73.50;;;18.20;67.78;95823.91;4128198;34;19903;-84
2022/09/11 12:13:31;;;;;;;;;;;19.00;73.50;;;18.19;67.72;95822.31;4150819;34;20170;-83
2022/09/11 12:16:06;;;;;;;;;;;19.00;73.40;;;18.19;67.80;95816.78;4128333;34;19911;-83
2022/09/11 12:18:36;;;;;;;;;;;18.90;73.40;;;18.20;67.77;95820.34;4150307;34;19903;-83
2022/09/11 12:21:40;;;;;;;;;;;19.00;73.50;;;18.19;67.63;95804.84;4150730;34;19904;-84
2022/09/11 12:24:17;;;;;;;;;;;19.00;73.50;;;18.19;67.50;95805.69;4128291;34;19956;-84
2022/09/11 12:26:46;;;;;;;;;;;18.90;73.50;;;18.18;67.74;95798.53;4150606;34;19911;-84
2022/09/11 12:29:53;;;;;;;;;;;19.00;73.60;;;18.18;67.97;95792.97;4151218;34;20126;-84
2022/09/11 12:32:41;;;;;;;;;;;18.90;73.60;;;18.18;67.69;95797.69;4128070;34;20215;-84
2022/09/11 12:35:25;;;;;;;;;;;19.00;73.50;;;18.17;68.00;95785.81;4150770;34;20033;-84
2022/09/11 12:38:12;;;;;;;;;;;18.90;73.50;;;18.17;67.57;95791.34;4127527;34;20022;-84
2022/09/11 12:40:47;;;;;;;;;;;18.90;73.50;;;18.18;67.99;95797.69;4150542;34;20222;-84
2022/09/11 12:43:29;;;;;;;;;;;18.90;73.60;;;18.16;67.74;95789.72;4151655;34;20171;-84
2022/09/11 12:45:57;;;;;;;;;;;18.90;73.60;;;18.17;68.13;95798.84;4123388;34;20160;-84
2022/09/11 12:48:36;;;;;;;;;;;18.90;73.70;;;18.17;67.97;95799.66;4122926;34;20091;-84
2022/09/11 12:51:06;;;;;;;;;;;18.90;73.70;;;18.17;67.97;95807.16;4123266;34;19904;-83
2022/09/11 12:53:36;;;;;;;;;;;18.90;73.80;;;18.16;68.17;95811.06;4123367;34;20218;-84
2022/09/11 12:56:06;;;;;;;;;;;18.90;73.80;;;18.15;68.06;95798.34;4123204;34;19953;-84
2022/09/11 12:58:37;;;;;;;;;;;18.90;73.80;;;18.16;67.85;95799.97;4122827;34;19904;-84
2022/09/11 13:01:15;;;;;;;;;;;18.90;73.70;;;18.15;68.18;95799.19;4100976;34;20479;-84
2022/09/11 13:03:56;;;;;;;;;;;18.90;73.80;;;18.14;68.02;95796.75;4123420;34;20176;-84
2022/09/11 13:06:36;;;;;;;;;;;18.90;73.80;;;18.15;68.10;95812.19;4100948;34;19904;-84
2022/09/11 13:09:05;;;;;;;;;;;18.90;73.80;;;18.15;68.04;95806.66;4122811;34;19904;-84
2022/09/11 13:11:42;;;;;;;;;;;18.90;73.80;;;18.15;68.19;95809.44;4122919;34;19915;-84
2022/09/11 13:14:45;;;;;;;;;;;18.90;73.80;;;18.15;67.73;95809.44;4100864;34;19904;-84
2022/09/11 13:17:17;;;;;;;;;;;18.90;73.80;;;18.15;67.93;95798.34;4121843;34;20025;-84
2022/09/11 13:19:45;;;;;;;;;;;18.90;73.80;;;18.14;68.07;95796.75;4149558;34;20237;-84
2022/09/11 13:22:26;;;;;;;;;;;18.90;73.70;;;18.15;67.77;95798.34;4150189;34;19903;-84
2022/09/11 13:25:06;;;;;;;;;;;18.90;73.70;;;18.15;67.96;95803.88;4150225;34;20139;-83
2022/09/11 13:27:38;;;;;;;;;;;18.90;73.70;;;18.14;68.02;95805.06;4126848;34;20132;-83
2022/09/11 13:30:14;;;;;;;;;;;18.90;73.70;;;18.14;68.01;95796.75;4127481;34;20000;-83
2022/09/11 13:32:42;;;;;;;;;;;18.90;73.80;;;18.15;68.03;95798.34;4150690;34;19903;-83
2022/09/11 13:35:18;;;;;;;;;;;18.90;73.60;;;18.15;68.07;95801.13;4150076;34;20171;-84
2022/09/11 13:37:55;;;;;;;;;;;18.90;73.70;;;18.15;67.81;95807.47;4126901;34;19911;-85
2022/09/11 13:40:28;;;;;;;;;;;18.90;73.60;;;18.16;67.82;95809.13;4150837;34;19903;-83
2022/09/11 13:42:57;;;;;;;;;;;18.90;73.60;;;18.17;67.78;95801.59;4149955;34;19926;-83